createdAt,value
2019-04-25T00:00:35.095Z,20.565796
2019-04-25T00:01:35.110Z,20.535583
2019-04-25T00:02:35.271Z,20.535583
2019-04-25T00:03:35.393Z,20.525513
2019-04-25T00:04:35.534Z,20.525513
2019-04-25T00:05:35.628Z,20.525513
2019-04-25T00:06:35.688Z,20.535583
2019-04-25T00:07:35.757Z,20.4953
2019-04-25T00:08:35.864Z,20.535583
2019-04-25T00:09:36.093Z,20.505371
2019-04-25T00:10:36.238Z,20.525513
2019-04-25T00:11:36.421Z,20.535583
2019-04-25T00:12:36.495Z,20.525513
2019-04-25T00:13:36.514Z,20.535583
2019-04-25T00:14:36.674Z,20.505371
2019-04-25T00:15:36.814Z,20.505371
2019-04-25T00:16:37.966Z,20.505371
2019-04-25T00:17:37.008Z,20.505371
2019-04-25T00:18:37.150Z,20.525513
2019-04-25T00:19:37.283Z,20.535583
2019-04-25T00:20:37.452Z,20.525513
2019-04-25T00:21:37.560Z,20.505371
2019-04-25T00:22:37.806Z,20.505371
2019-04-25T00:23:37.939Z,20.4953
2019-04-25T00:24:38.157Z,20.455017
2019-04-25T00:25:39.149Z,20.475159
2019-04-25T00:26:39.224Z,20.455017
2019-04-25T00:27:39.472Z,20.455017
2019-04-25T00:28:39.554Z,20.444946
2019-04-25T00:29:39.673Z,20.455017
2019-04-25T00:30:38.861Z,20.475159
2019-04-25T00:31:39.961Z,20.475159
2019-04-25T00:32:41.467Z,20.455017
2019-04-25T00:33:40.184Z,20.455017
2019-04-25T00:34:39.302Z,20.455017
2019-04-25T00:35:41.651Z,20.4953
2019-04-25T00:36:39.498Z,20.455017
2019-04-25T00:37:42.323Z,20.455017
2019-04-25T00:38:41.779Z,20.444946
2019-04-25T00:39:39.943Z,20.444946
2019-04-25T00:40:42.057Z,20.444946
2019-04-25T00:41:40.250Z,20.444946
2019-04-25T00:42:41.878Z,20.424805
2019-04-25T00:43:41.536Z,20.444946
2019-04-25T00:44:41.902Z,20.424805
2019-04-25T00:45:41.737Z,20.444946
2019-04-25T00:46:42.422Z,20.455017
2019-04-25T00:47:41.751Z,20.424805
2019-04-25T00:48:41.721Z,20.414734
2019-04-25T00:49:42.331Z,20.444946
2019-04-25T00:50:41.800Z,20.414734
2019-04-25T00:51:41.985Z,20.424805
2019-04-25T00:52:41.656Z,20.404663
2019-04-25T00:53:42.019Z,20.404663
2019-04-25T00:54:41.597Z,20.414734
2019-04-25T00:55:41.609Z,20.404663
2019-04-25T00:56:42.346Z,20.424805
2019-04-25T00:57:42.023Z,20.414734
2019-04-25T00:58:42.396Z,20.404663
2019-04-25T00:59:42.102Z,20.404663
2019-04-25T01:00:41.864Z,20.404663
2019-04-25T01:01:43.323Z,20.414734
2019-04-25T01:02:42.554Z,20.404663
2019-04-25T01:03:42.589Z,20.374451
2019-04-25T01:04:42.231Z,20.374451
2019-04-25T01:05:42.709Z,20.374451
2019-04-25T01:06:42.518Z,20.374451
2019-04-25T01:07:42.703Z,20.374451
2019-04-25T01:08:42.673Z,20.384521
2019-04-25T01:09:42.732Z,20.354309
2019-04-25T01:10:42.873Z,20.354309
2019-04-25T01:11:42.958Z,20.374451
2019-04-25T01:12:43.231Z,20.374451
2019-04-25T01:13:43.264Z,20.374451
2019-04-25T01:14:43.404Z,20.374451
2019-04-25T01:15:43.471Z,20.374451
2019-04-25T01:16:43.574Z,20.354309
2019-04-25T01:17:43.828Z,20.354309
2019-04-25T01:18:43.888Z,20.354309
2019-04-25T01:19:44.256Z,20.334167
2019-04-25T01:20:44.070Z,20.334167
2019-04-25T01:21:44.175Z,20.354309
2019-04-25T01:22:44.331Z,20.354309
2019-04-25T01:23:44.367Z,20.344238
2019-04-25T01:24:44.302Z,20.314026
2019-04-25T01:25:44.958Z,20.334167
2019-04-25T01:26:44.534Z,20.334167
2019-04-25T01:27:44.726Z,20.314026
2019-04-25T01:28:44.706Z,20.314026
2019-04-25T01:29:44.849Z,20.334167
2019-04-25T01:30:44.946Z,20.334167
2019-04-25T01:31:45.073Z,20.334167
2019-04-25T01:32:45.366Z,20.314026
2019-04-25T01:33:45.344Z,20.314026
2019-04-25T01:34:45.450Z,20.314026
2019-04-25T01:35:45.513Z,20.334167
2019-04-25T01:36:45.645Z,20.334167
2019-04-25T01:37:45.953Z,20.334167
2019-04-25T01:38:45.851Z,20.334167
2019-04-25T01:39:45.908Z,20.314026
2019-04-25T01:40:46.108Z,20.303955
2019-04-25T01:41:46.189Z,20.273743
2019-04-25T01:42:46.426Z,20.273743
2019-04-25T01:43:46.399Z,20.273743
2019-04-25T01:44:46.461Z,20.303955
2019-04-25T01:45:46.654Z,20.314026
2019-04-25T01:46:46.782Z,20.314026
2019-04-25T01:47:47.020Z,20.314026
2019-04-25T01:48:47.091Z,20.314026
2019-04-25T01:49:47.240Z,20.314026
2019-04-25T01:50:47.320Z,20.314026
2019-04-25T01:51:47.352Z,20.303955
2019-04-25T01:52:47.447Z,20.303955
2019-04-25T01:53:47.537Z,20.263672
2019-04-25T01:54:47.632Z,20.263672
2019-04-25T01:56:47.866Z,20.253601
2019-04-25T01:57:47.957Z,20.233459
2019-04-25T01:58:48.147Z,20.263672
2019-04-25T01:59:48.237Z,20.253601
2019-04-25T02:00:49.418Z,20.253601
2019-04-25T02:01:49.559Z,20.253601
2019-04-25T02:02:49.609Z,20.253601
2019-04-25T02:03:49.670Z,20.233459
2019-04-25T02:04:49.868Z,20.263672
2019-04-25T02:05:49.842Z,20.263672
2019-04-25T02:06:49.904Z,20.253601
2019-04-25T02:07:49.988Z,20.253601
2019-04-25T02:08:50.141Z,20.253601
2019-04-25T02:09:50.188Z,20.233459
2019-04-25T02:10:49.384Z,20.193176
2019-04-25T02:11:49.537Z,20.203247
2019-04-25T02:12:50.582Z,20.253601
2019-04-25T02:13:49.700Z,20.253601
2019-04-25T02:14:50.749Z,20.253601
2019-04-25T02:15:49.883Z,20.223389
2019-04-25T02:16:51.001Z,20.233459
2019-04-25T02:17:50.136Z,20.253601
2019-04-25T02:18:50.251Z,20.223389
2019-04-25T02:19:50.472Z,20.233459
2019-04-25T02:20:50.658Z,20.203247
2019-04-25T02:21:50.663Z,20.203247
2019-04-25T02:22:50.724Z,20.203247
2019-04-25T02:23:50.898Z,20.203247
2019-04-25T02:24:51.106Z,20.203247
2019-04-25T02:26:03.666Z,20.223389
2019-04-25T02:26:51.303Z,20.203247
2019-04-25T02:27:51.278Z,20.203247
2019-04-25T02:28:51.326Z,20.203247
2019-04-25T02:29:51.443Z,20.203247
2019-04-25T02:30:51.659Z,20.173035
2019-04-25T02:31:51.682Z,20.203247
2019-04-25T02:32:54.460Z,20.203247
2019-04-25T02:33:52.031Z,20.193176
2019-04-25T02:34:52.088Z,20.162964
2019-04-25T02:35:52.301Z,20.152893
2019-04-25T02:36:52.417Z,20.173035
2019-04-25T02:37:52.407Z,20.162964
2019-04-25T02:38:52.553Z,20.162964
2019-04-25T02:39:54.535Z,20.162964
2019-04-25T02:40:54.884Z,20.162964
2019-04-25T02:41:54.913Z,20.162964
2019-04-25T02:42:54.641Z,20.162964
2019-04-25T02:43:55.208Z,20.173035
2019-04-25T02:44:55.053Z,20.162964
2019-04-25T02:45:54.446Z,20.162964
2019-04-25T02:46:54.970Z,20.152893
2019-04-25T02:47:54.086Z,20.162964
2019-04-25T02:48:55.326Z,20.132751
2019-04-25T02:49:54.888Z,20.152893
2019-04-25T02:50:54.375Z,20.152893
2019-04-25T02:51:55.372Z,20.152893
2019-04-25T02:52:54.625Z,20.152893
2019-04-25T02:53:54.095Z,20.162964
2019-04-25T02:54:54.854Z,20.152893
2019-04-25T02:55:54.255Z,20.132751
2019-04-25T02:56:55.111Z,20.132751
2019-04-25T02:57:54.575Z,20.152893
2019-04-25T02:58:54.786Z,20.152893
2019-04-25T02:59:54.988Z,20.152893
2019-04-25T03:01:55.013Z,20.122681
2019-04-25T03:02:55.190Z,20.122681
2019-04-25T03:03:55.371Z,20.122681
2019-04-25T03:04:55.350Z,20.102539
2019-04-25T03:05:55.590Z,20.082397
2019-04-25T03:06:56.061Z,20.082397
2019-04-25T03:07:55.771Z,20.102539
2019-04-25T03:08:55.954Z,20.102539
2019-04-25T03:09:56.048Z,20.102539
2019-04-25T03:10:56.159Z,20.082397
2019-04-25T03:11:56.264Z,20.072327
2019-04-25T03:12:56.273Z,20.122681
2019-04-25T03:13:56.501Z,20.082397
2019-04-25T03:14:56.474Z,20.102539
2019-04-25T03:15:56.646Z,20.122681
2019-04-25T03:16:56.673Z,20.122681
2019-04-25T03:17:56.855Z,20.122681
2019-04-25T03:18:56.857Z,20.082397
2019-04-25T03:19:57.067Z,20.082397
2019-04-25T03:20:57.201Z,20.132751
2019-04-25T03:21:57.239Z,20.152893
2019-04-25T03:22:57.429Z,20.132751
2019-04-25T03:23:57.408Z,20.122681
2019-04-25T03:24:57.659Z,20.162964
2019-04-25T03:25:57.656Z,20.132751
2019-04-25T03:26:57.835Z,20.102539
2019-04-25T03:27:57.936Z,20.122681
2019-04-25T03:28:58.032Z,20.072327
2019-04-25T03:29:58.133Z,20.102539
2019-04-25T03:30:58.424Z,20.102539
2019-04-25T03:31:59.367Z,20.122681
2019-04-25T03:32:59.559Z,20.132751
2019-04-25T03:33:59.626Z,20.132751
2019-04-25T03:34:59.652Z,20.152893
2019-04-25T03:35:59.922Z,20.132751
2019-04-25T03:37:00.234Z,20.152893
2019-04-25T03:37:59.322Z,20.152893
2019-04-25T03:38:59.266Z,20.132751
2019-04-25T03:40:00.390Z,20.152893
2019-04-25T03:40:59.461Z,20.132751
2019-04-25T03:42:00.626Z,20.122681
2019-04-25T03:42:59.776Z,20.132751
2019-04-25T03:44:00.902Z,20.152893
2019-04-25T03:44:59.943Z,20.173035
2019-04-25T03:46:01.102Z,20.193176
2019-04-25T03:47:00.257Z,20.203247
2019-04-25T03:48:00.430Z,20.223389
2019-04-25T03:49:00.511Z,20.233459
2019-04-25T03:50:00.699Z,20.193176
2019-04-25T03:51:00.806Z,20.193176
2019-04-25T03:52:00.863Z,20.193176
2019-04-25T03:53:00.910Z,20.193176
2019-04-25T03:54:00.964Z,20.173035
2019-04-25T03:55:01.032Z,20.173035
2019-04-25T03:56:01.233Z,20.193176
2019-04-25T03:57:01.227Z,20.173035
2019-04-25T03:58:01.460Z,20.193176
2019-04-25T03:59:01.403Z,20.173035
2019-04-25T04:00:01.523Z,20.193176
2019-04-25T04:01:01.734Z,20.193176
2019-04-25T04:02:01.695Z,20.193176
2019-04-25T04:03:01.891Z,20.193176
2019-04-25T04:04:03.613Z,20.193176
2019-04-25T04:05:03.857Z,20.193176
2019-04-25T04:06:02.205Z,20.173035
2019-04-25T04:07:03.741Z,20.203247
2019-04-25T04:08:03.572Z,20.223389
2019-04-25T04:09:03.946Z,20.233459
2019-04-25T04:10:03.786Z,20.223389
2019-04-25T04:11:04.318Z,20.223389
2019-04-25T04:12:03.594Z,20.233459
2019-04-25T04:13:04.454Z,20.233459
2019-04-25T04:14:04.177Z,20.253601
2019-04-25T04:15:03.981Z,20.253601
2019-04-25T04:16:03.574Z,20.263672
2019-04-25T04:17:04.328Z,20.263672
2019-04-25T04:18:04.402Z,20.273743
2019-04-25T04:19:04.232Z,20.263672
2019-04-25T04:20:04.133Z,20.273743
2019-04-25T04:21:03.980Z,20.303955
2019-04-25T04:22:04.074Z,20.273743
2019-04-25T04:23:04.182Z,20.273743
2019-04-25T04:24:04.582Z,20.263672
2019-04-25T04:25:04.478Z,20.273743
2019-04-25T04:26:04.455Z,20.273743
2019-04-25T04:27:05.916Z,20.273743
2019-04-25T04:28:04.754Z,20.303955
2019-04-25T04:29:05.029Z,20.314026
2019-04-25T04:30:05.001Z,20.314026
2019-04-25T04:31:05.163Z,20.273743
2019-04-25T04:32:05.325Z,20.303955
2019-04-25T04:33:05.452Z,20.273743
2019-04-25T04:34:05.574Z,20.273743
2019-04-25T04:35:05.697Z,20.273743
2019-04-25T04:36:05.893Z,20.303955
2019-04-25T04:37:06.019Z,20.273743
2019-04-25T04:38:06.616Z,20.303955
2019-04-25T04:39:06.826Z,20.303955
2019-04-25T04:40:06.458Z,20.273743
2019-04-25T04:41:06.496Z,20.303955
2019-04-25T04:42:06.696Z,20.334167
2019-04-25T04:43:06.674Z,20.314026
2019-04-25T04:44:06.809Z,20.273743
2019-04-25T04:45:06.935Z,20.314026
2019-04-25T04:46:07.060Z,20.314026
2019-04-25T04:47:06.984Z,20.344238
2019-04-25T04:48:07.286Z,20.344238
2019-04-25T04:49:07.283Z,20.354309
2019-04-25T04:50:07.376Z,20.354309
2019-04-25T04:51:07.530Z,20.334167
2019-04-25T04:52:07.622Z,20.344238
2019-04-25T04:53:07.772Z,20.354309
2019-04-25T04:54:07.987Z,20.354309
2019-04-25T04:55:08.833Z,20.384521
2019-04-25T04:56:08.097Z,20.384521
2019-04-25T04:57:17.434Z,20.384521
2019-04-25T04:58:09.498Z,20.354309
2019-04-25T04:59:09.394Z,20.374451
2019-04-25T05:00:09.374Z,20.374451
2019-04-25T05:01:09.469Z,20.404663
2019-04-25T05:02:09.536Z,20.404663
2019-04-25T05:03:09.599Z,20.404663
2019-04-25T05:04:09.729Z,20.384521
2019-04-25T05:05:09.867Z,20.374451
2019-04-25T05:06:10.012Z,20.384521
2019-04-25T05:07:10.166Z,20.354309
2019-04-25T05:08:09.352Z,20.344238
2019-04-25T05:09:10.386Z,20.253601
2019-04-25T05:10:09.631Z,20.233459
2019-04-25T05:11:10.738Z,20.193176
2019-04-25T05:12:09.931Z,20.193176
2019-04-25T05:13:10.505Z,20.122681
2019-04-25T05:14:10.167Z,20.072327
2019-04-25T05:15:11.348Z,20.102539
2019-04-25T05:16:10.359Z,20.122681
2019-04-25T05:17:10.546Z,20.102539
2019-04-25T05:18:10.655Z,20.102539
2019-04-25T05:19:10.718Z,20.052185
2019-04-25T05:20:10.977Z,20.072327
2019-04-25T05:21:11.113Z,20.072327
2019-04-25T05:22:11.122Z,20.052185
2019-04-25T05:23:11.232Z,20.072327
2019-04-25T05:24:11.311Z,20.102539
2019-04-25T05:25:11.421Z,20.132751
2019-04-25T05:26:11.470Z,20.152893
2019-04-25T05:27:11.574Z,20.122681
2019-04-25T05:28:11.798Z,20.132751
2019-04-25T05:29:11.976Z,20.132751
2019-04-25T05:30:13.644Z,20.102539
2019-04-25T05:31:13.240Z,20.132751
2019-04-25T05:32:12.028Z,20.152893
2019-04-25T05:33:13.807Z,20.162964
2019-04-25T05:34:13.735Z,20.152893
2019-04-25T05:35:13.401Z,20.162964
2019-04-25T05:36:14.269Z,20.152893
2019-04-25T05:37:13.649Z,20.162964
2019-04-25T05:38:13.482Z,20.152893
2019-04-25T05:39:14.513Z,20.152893
2019-04-25T05:40:13.915Z,20.152893
2019-04-25T05:41:14.104Z,20.162964
2019-04-25T05:42:14.423Z,20.152893
2019-04-25T05:43:13.579Z,20.122681
2019-04-25T05:44:14.216Z,20.122681
2019-04-25T05:45:15.305Z,20.122681
2019-04-25T05:46:13.867Z,20.102539
2019-04-25T05:47:14.377Z,20.082397
2019-04-25T05:48:14.466Z,20.072327
2019-04-25T05:49:14.071Z,20.082397
2019-04-25T05:50:14.256Z,20.122681
2019-04-25T05:51:14.355Z,20.122681
2019-04-25T05:52:14.535Z,20.132751
2019-04-25T05:53:14.701Z,20.173035
2019-04-25T05:54:15.051Z,20.193176
2019-04-25T05:55:16.498Z,20.203247
2019-04-25T05:56:15.078Z,20.263672
2019-04-25T05:57:15.121Z,20.263672
2019-04-25T05:58:15.274Z,20.263672
2019-04-25T05:59:16.377Z,20.263672
2019-04-25T06:00:15.585Z,20.233459
2019-04-25T06:01:15.660Z,20.233459
2019-04-25T06:02:16.410Z,20.253601
2019-04-25T06:03:15.783Z,20.253601
2019-04-25T06:04:16.082Z,20.273743
2019-04-25T06:05:15.851Z,20.273743
2019-04-25T06:06:16.008Z,20.263672
2019-04-25T06:07:16.394Z,20.253601
2019-04-25T06:08:16.037Z,20.314026
2019-04-25T06:09:16.178Z,20.273743
2019-04-25T06:10:16.382Z,20.314026
2019-04-25T06:11:16.410Z,20.344238
2019-04-25T06:12:16.650Z,20.374451
2019-04-25T06:13:16.606Z,20.374451
2019-04-25T06:14:16.728Z,20.384521
2019-04-25T06:15:16.798Z,20.374451
2019-04-25T06:16:16.903Z,20.384521
2019-04-25T06:17:18.212Z,20.374451
2019-04-25T06:18:18.117Z,20.404663
2019-04-25T06:19:18.876Z,20.414734
2019-04-25T06:20:18.389Z,20.404663
2019-04-25T06:21:18.389Z,20.384521
2019-04-25T06:22:17.647Z,20.384521
2019-04-25T06:23:17.380Z,20.374451
2019-04-25T06:24:17.374Z,20.414734
2019-04-25T06:25:18.551Z,20.424805
2019-04-25T06:26:25.560Z,20.455017
2019-04-25T06:27:18.858Z,20.475159
2019-04-25T06:28:18.645Z,20.475159
2019-04-25T06:29:18.835Z,20.4953
2019-04-25T06:30:18.937Z,20.505371
2019-04-25T06:31:18.130Z,20.535583
2019-04-25T06:32:19.686Z,20.565796
2019-04-25T06:33:19.448Z,20.606079
2019-04-25T06:34:18.230Z,20.565796
2019-04-25T06:35:19.341Z,20.565796
2019-04-25T06:36:19.432Z,20.565796
2019-04-25T06:37:19.692Z,20.565796
2019-04-25T06:38:19.741Z,20.575867
2019-04-25T06:39:18.820Z,20.565796
2019-04-25T06:40:18.920Z,20.555725
2019-04-25T06:41:20.344Z,20.555725
2019-04-25T06:42:19.550Z,20.555725
2019-04-25T06:43:20.743Z,20.575867
2019-04-25T06:44:19.205Z,20.596008
2019-04-25T06:45:20.331Z,20.626221
2019-04-25T06:46:19.414Z,20.686646
2019-04-25T06:47:19.531Z,20.706787
2019-04-25T06:48:19.550Z,20.716858
2019-04-25T06:49:23.401Z,20.787354
2019-04-25T06:50:19.704Z,20.86792
2019-04-25T06:51:20.745Z,20.86792
2019-04-25T06:52:20.084Z,20.898132
2019-04-25T06:53:20.914Z,20.898132
2019-04-25T06:54:20.038Z,20.938416
2019-04-25T06:55:21.180Z,20.938416
2019-04-25T06:56:20.294Z,20.968628
2019-04-25T06:57:20.500Z,20.938416
2019-04-25T06:58:20.527Z,20.938416
2019-04-25T06:59:20.841Z,20.958557
2019-04-25T07:00:20.791Z,20.968628
2019-04-25T07:01:21.034Z,21.008911
2019-04-25T07:02:21.373Z,21.029053
2019-04-25T07:03:21.273Z,21.029053
2019-04-25T07:04:21.568Z,20.99884
2019-04-25T07:06:21.577Z,20.958557
2019-04-25T07:07:23.549Z,20.99884
2019-04-25T07:08:21.772Z,21.008911
2019-04-25T07:09:23.314Z,21.089478
2019-04-25T07:10:23.442Z,21.109619
2019-04-25T07:11:24.166Z,21.129761
2019-04-25T07:12:24.276Z,21.159973
2019-04-25T07:13:24.020Z,21.180115
2019-04-25T07:14:23.888Z,21.24054
2019-04-25T07:15:23.774Z,21.190186
2019-04-25T07:16:23.359Z,21.190186
2019-04-25T07:17:24.358Z,21.210327
2019-04-25T07:18:23.810Z,21.220398
2019-04-25T07:19:24.151Z,21.24054
2019-04-25T07:20:23.664Z,21.220398
2019-04-25T07:21:23.332Z,21.210327
2019-04-25T07:22:24.126Z,21.260681
2019-04-25T07:23:23.845Z,21.270752
2019-04-25T07:24:24.166Z,21.300964
2019-04-25T07:25:24.270Z,21.311035
2019-04-25T07:26:24.317Z,21.311035
2019-04-25T07:27:23.860Z,21.311035
2019-04-25T07:28:26.149Z,21.280823
2019-04-25T07:29:23.772Z,21.260681
2019-04-25T07:31:23.519Z,21.260681
2019-04-25T07:32:24.838Z,21.270752
2019-04-25T07:33:25.059Z,21.300964
2019-04-25T07:34:24.292Z,21.311035
2019-04-25T07:35:23.820Z,21.341248
2019-04-25T07:36:24.072Z,21.361389
2019-04-25T07:37:24.477Z,21.361389
2019-04-25T07:38:24.002Z,21.341248
2019-04-25T07:39:24.054Z,21.341248
2019-04-25T07:40:24.123Z,21.341248
2019-04-25T07:41:24.377Z,21.381531
2019-04-25T07:42:24.506Z,21.341248
2019-04-25T07:43:24.400Z,21.341248
2019-04-25T07:44:34.542Z,21.341248
2019-04-25T07:45:25.531Z,21.341248
2019-04-25T07:46:24.687Z,21.331177
2019-04-25T07:47:25.082Z,21.341248
2019-04-25T07:48:25.018Z,21.361389
2019-04-25T07:49:25.072Z,21.37146
2019-04-25T07:50:25.163Z,21.381531
2019-04-25T07:51:25.222Z,21.431885
2019-04-25T07:52:25.426Z,21.462097
2019-04-25T07:53:27.261Z,21.482239
2019-04-25T07:54:25.720Z,21.482239
2019-04-25T07:55:25.996Z,21.482239
2019-04-25T07:56:26.205Z,21.49231
2019-04-25T07:57:25.904Z,21.522522
2019-04-25T07:59:25.921Z,21.522522
2019-04-25T08:00:25.756Z,21.532593
2019-04-25T08:01:26.076Z,21.532593
2019-04-25T08:02:26.442Z,21.49231
2019-04-25T08:03:26.941Z,21.482239
2019-04-25T08:04:26.049Z,21.482239
2019-04-25T08:05:26.268Z,21.522522
2019-04-25T08:06:26.134Z,21.562805
2019-04-25T08:07:26.465Z,21.512451
2019-04-25T08:08:26.589Z,21.562805
2019-04-25T08:09:26.320Z,21.522522
2019-04-25T08:10:26.386Z,21.552734
2019-04-25T08:11:26.603Z,21.552734
2019-04-25T08:12:26.740Z,21.522522
2019-04-25T08:13:26.692Z,21.552734
2019-04-25T08:14:26.920Z,21.562805
2019-04-25T08:15:26.730Z,21.593018
2019-04-25T08:16:27.775Z,21.633301
2019-04-25T08:17:27.518Z,21.593018
2019-04-25T08:18:27.089Z,21.613159
2019-04-25T08:19:27.943Z,21.643372
2019-04-25T08:20:27.390Z,21.663513
2019-04-25T08:21:29.032Z,21.673584
2019-04-25T08:22:28.546Z,21.582947
2019-04-25T08:23:27.532Z,21.552734
2019-04-25T08:24:27.594Z,21.552734
2019-04-25T08:25:27.688Z,21.522522
2019-04-25T08:26:27.920Z,21.522522
2019-04-25T08:27:29.509Z,21.522522
2019-04-25T08:28:28.879Z,21.482239
2019-04-25T08:29:29.735Z,21.512451
2019-04-25T08:30:28.237Z,21.522522
2019-04-25T08:31:29.419Z,21.512451
2019-04-25T08:32:29.213Z,21.512451
2019-04-25T08:33:28.169Z,21.532593
2019-04-25T08:34:29.248Z,21.532593
2019-04-25T08:35:28.389Z,21.532593
2019-04-25T08:36:29.504Z,21.522522
2019-04-25T08:37:28.629Z,21.552734
2019-04-25T08:38:29.731Z,21.522522
2019-04-25T08:39:28.730Z,21.532593
2019-04-25T08:40:30.585Z,21.552734
2019-04-25T08:41:29.267Z,21.633301
2019-04-25T08:42:30.475Z,21.613159
2019-04-25T08:43:29.171Z,21.582947
2019-04-25T08:44:30.757Z,21.552734
2019-04-25T08:45:29.854Z,21.582947
2019-04-25T08:46:31.738Z,21.663513
2019-04-25T08:47:29.619Z,21.673584
2019-04-25T08:48:29.660Z,21.673584
2019-04-25T08:49:29.679Z,21.713867
2019-04-25T08:50:31.913Z,21.734009
2019-04-25T08:51:29.856Z,21.703796
2019-04-25T08:52:30.164Z,21.713867
2019-04-25T08:53:30.671Z,21.74408
2019-04-25T08:54:30.191Z,21.74408
2019-04-25T08:55:30.556Z,21.774292
2019-04-25T08:56:30.319Z,21.75415
2019-04-25T08:57:30.368Z,21.75415
2019-04-25T08:58:30.480Z,21.794434
2019-04-25T08:59:35.159Z,21.834717
2019-04-25T09:00:30.619Z,21.864929
2019-04-25T09:01:30.622Z,21.895142
2019-04-25T09:02:30.674Z,21.895142
2019-04-25T09:03:30.724Z,21.895142
2019-04-25T09:04:30.871Z,21.895142
2019-04-25T09:05:30.890Z,21.895142
2019-04-25T09:06:30.962Z,21.955566
2019-04-25T09:07:31.138Z,21.955566
2019-04-25T09:08:31.777Z,21.925354
2019-04-25T09:09:31.328Z,21.905212
2019-04-25T09:10:31.449Z,21.885071
2019-04-25T09:11:32.561Z,21.895142
2019-04-25T09:12:31.523Z,21.905212
2019-04-25T09:13:31.764Z,21.905212
2019-04-25T09:14:31.609Z,21.935425
2019-04-25T09:15:31.711Z,21.935425
2019-04-25T09:16:33.756Z,21.975708
2019-04-25T09:17:31.788Z,21.975708
2019-04-25T09:18:33.979Z,22.00592
2019-04-25T09:19:32.225Z,22.036133
2019-04-25T09:20:32.116Z,22.056274
2019-04-25T09:21:33.433Z,22.036133
2019-04-25T09:22:34.284Z,22.036133
2019-04-25T09:23:33.630Z,22.00592
2019-04-25T09:24:32.375Z,22.00592
2019-04-25T09:25:33.755Z,22.015991
2019-04-25T09:26:34.164Z,21.985779
2019-04-25T09:27:33.605Z,21.985779
2019-04-25T09:28:33.787Z,22.00592
2019-04-25T09:29:33.478Z,21.985779
2019-04-25T09:30:34.233Z,22.015991
2019-04-25T09:31:33.514Z,22.00592
2019-04-25T09:32:34.049Z,21.985779
2019-04-25T09:33:34.419Z,22.015991
2019-04-25T09:34:33.993Z,22.00592
2019-04-25T09:35:34.424Z,22.00592
2019-04-25T09:36:34.478Z,22.015991
2019-04-25T09:37:33.775Z,22.036133
2019-04-25T09:38:34.112Z,22.036133
2019-04-25T09:39:33.990Z,22.056274
2019-04-25T09:40:34.439Z,22.076416
2019-04-25T09:41:34.519Z,22.106628
2019-04-25T09:42:33.994Z,22.146912
2019-04-25T09:43:34.282Z,22.187195
2019-04-25T09:44:35.205Z,22.187195
2019-04-25T09:45:34.437Z,22.197266
2019-04-25T09:46:34.370Z,22.197266
2019-04-25T09:47:34.083Z,22.207336
2019-04-25T09:48:34.615Z,22.227478
2019-04-25T09:49:36.049Z,22.237549
2019-04-25T09:50:36.260Z,22.25769
2019-04-25T09:51:34.330Z,22.267761
2019-04-25T09:52:34.487Z,22.25769
2019-04-25T09:53:37.440Z,22.237549
2019-04-25T09:54:34.601Z,22.227478
2019-04-25T09:55:34.524Z,22.227478
2019-04-25T09:56:35.060Z,22.207336
2019-04-25T09:57:34.715Z,22.197266
2019-04-25T09:58:34.954Z,22.197266
2019-04-25T09:59:35.492Z,22.187195
2019-04-25T10:00:34.849Z,22.187195
2019-04-25T10:01:34.909Z,22.197266
2019-04-25T10:02:35.098Z,22.207336
2019-04-25T10:03:35.100Z,22.237549
2019-04-25T10:04:36.199Z,22.267761
2019-04-25T10:05:35.278Z,22.267761
2019-04-25T10:06:35.631Z,22.25769
2019-04-25T10:07:35.438Z,22.237549
2019-04-25T10:08:35.424Z,22.237549
2019-04-25T10:09:39.083Z,22.237549
2019-04-25T10:10:37.063Z,22.25769
2019-04-25T10:11:36.651Z,22.267761
2019-04-25T10:12:35.753Z,22.328186
2019-04-25T10:13:36.794Z,22.358398
2019-04-25T10:14:35.824Z,22.37854
2019-04-25T10:15:35.996Z,22.388611
2019-04-25T10:16:37.138Z,22.388611
2019-04-25T10:17:36.059Z,22.348328
2019-04-25T10:18:36.053Z,22.37854
2019-04-25T10:19:36.043Z,22.358398
2019-04-25T10:20:36.015Z,22.37854
2019-04-25T10:21:36.213Z,22.308044
2019-04-25T10:22:37.197Z,22.267761
2019-04-25T10:23:36.577Z,22.207336
2019-04-25T10:24:36.534Z,22.197266
2019-04-25T10:25:36.511Z,22.167053
2019-04-25T10:26:36.639Z,22.167053
2019-04-25T10:27:37.509Z,22.116699
2019-04-25T10:28:37.952Z,22.146912
2019-04-25T10:29:42.143Z,22.187195
2019-04-25T10:30:37.797Z,22.187195
2019-04-25T10:31:39.040Z,22.187195
2019-04-25T10:32:40.391Z,22.187195
2019-04-25T10:33:37.912Z,22.197266
2019-04-25T10:34:39.542Z,22.227478
2019-04-25T10:35:47.071Z,22.267761
2019-04-25T10:36:38.958Z,22.297974
2019-04-25T10:37:38.118Z,22.297974
2019-04-25T10:38:38.324Z,22.308044
2019-04-25T10:39:38.165Z,22.348328
2019-04-25T10:40:37.437Z,22.37854
2019-04-25T10:41:37.399Z,22.388611
2019-04-25T10:42:37.273Z,22.358398
2019-04-25T10:43:38.664Z,22.348328
2019-04-25T10:44:38.407Z,22.348328
2019-04-25T10:45:38.837Z,22.388611
2019-04-25T10:46:38.445Z,22.37854
2019-04-25T10:47:38.512Z,22.37854
2019-04-25T10:48:38.248Z,22.37854
2019-04-25T10:49:38.830Z,22.418823
2019-04-25T10:50:38.317Z,22.489319
2019-04-25T10:51:39.088Z,22.519531
2019-04-25T10:52:38.048Z,22.539673
2019-04-25T10:53:40.205Z,22.569885
2019-04-25T10:54:38.165Z,22.569885
2019-04-25T10:55:39.570Z,22.590027
2019-04-25T10:56:38.401Z,22.569885
2019-04-25T10:57:41.288Z,22.559814
2019-04-25T10:58:38.537Z,22.559814
2019-04-25T10:59:52.133Z,22.569885
2019-04-25T11:00:38.834Z,22.569885
2019-04-25T11:01:39.469Z,22.590027
2019-04-25T11:02:40.026Z,22.600098
2019-04-25T11:03:38.612Z,22.610168
2019-04-25T11:04:38.621Z,22.569885
2019-04-25T11:05:39.701Z,22.569885
2019-04-25T11:06:40.023Z,22.590027
2019-04-25T11:07:38.910Z,22.569885
2019-04-25T11:08:38.702Z,22.559814
2019-04-25T11:09:39.808Z,22.539673
2019-04-25T11:10:38.903Z,22.569885
2019-04-25T11:11:39.947Z,22.600098
2019-04-25T11:12:39.100Z,22.63031
2019-04-25T11:13:40.050Z,22.660522
2019-04-25T11:14:39.120Z,22.670593
2019-04-25T11:15:41.193Z,22.670593
2019-04-25T11:16:41.578Z,22.670593
2019-04-25T11:17:41.145Z,22.660522
2019-04-25T11:18:40.129Z,22.610168
2019-04-25T11:19:39.259Z,22.539673
2019-04-25T11:20:39.443Z,22.539673
2019-04-25T11:21:40.485Z,22.539673
2019-04-25T11:22:40.171Z,22.519531
2019-04-25T11:23:39.565Z,22.519531
2019-04-25T11:24:40.651Z,22.479248
2019-04-25T11:25:39.829Z,22.50946
2019-04-25T11:26:39.734Z,22.539673
2019-04-25T11:27:41.369Z,22.539673
2019-04-25T11:28:41.343Z,22.519531
2019-04-25T11:29:40.818Z,22.50946
2019-04-25T11:30:40.245Z,22.489319
2019-04-25T11:31:44.085Z,22.539673